createdAt,value
2017-09-27T00:00:45.204Z,13.91
2017-09-27T00:01:45.223Z,13.88
2017-09-27T00:02:44.923Z,13.92
2017-09-27T00:03:45.269Z,13.88
2017-09-27T00:04:45.283Z,13.87
2017-09-27T00:05:45.308Z,13.89
2017-09-27T00:06:45.332Z,13.87
2017-09-27T00:07:45.353Z,13.88
2017-09-27T00:08:45.370Z,13.88
2017-09-27T00:09:45.393Z,13.89
2017-09-27T00:11:00.010Z,13.84
2017-09-27T00:11:45.433Z,13.89
2017-09-27T00:12:45.459Z,13.91
2017-09-27T00:13:45.478Z,13.88
2017-09-27T00:14:45.509Z,13.89
2017-09-27T00:16:45.544Z,13.85
2017-09-27T00:18:45.588Z,13.89
2017-09-27T00:19:45.610Z,13.99
2017-09-27T00:20:45.632Z,13.97
2017-09-27T00:21:45.655Z,13.95
2017-09-27T00:22:45.680Z,13.88
2017-09-27T00:23:45.698Z,13.89
2017-09-27T00:24:45.399Z,13.84
2017-09-27T00:26:00.333Z,13.89
2017-09-27T00:26:45.774Z,13.73
2017-09-27T00:27:45.798Z,13.75
2017-09-27T00:28:45.806Z,13.73
2017-09-27T00:30:00.420Z,13.75
2017-09-27T00:30:45.851Z,13.85
2017-09-27T00:31:45.878Z,13.73
2017-09-27T00:32:45.572Z,13.77
2017-09-27T00:34:45.616Z,13.7
2017-09-27T00:35:45.959Z,13.81
2017-09-27T00:36:45.980Z,13.81
2017-09-27T00:37:46.000Z,13.75
2017-09-27T00:38:45.710Z,13.77
2017-09-27T00:39:46.049Z,13.77
2017-09-27T00:40:46.072Z,13.81
2017-09-27T00:42:00.360Z,13.77
2017-09-27T00:42:46.114Z,13.81
2017-09-27T00:43:46.132Z,13.84
2017-09-27T00:44:46.153Z,13.79
2017-09-27T00:46:00.766Z,13.89
2017-09-27T00:46:45.876Z,13.77
2017-09-27T00:47:45.582Z,13.88
2017-09-27T00:48:45.921Z,13.77
2017-09-27T00:49:45.626Z,13.77
2017-09-27T00:50:45.965Z,13.78
2017-09-27T00:51:46.305Z,13.77
2017-09-27T00:52:46.326Z,13.84
2017-09-27T00:53:46.347Z,13.88
2017-09-27T00:54:46.371Z,13.79
2017-09-27T00:55:46.392Z,13.81
2017-09-27T00:56:46.094Z,13.91
2017-09-27T00:58:01.030Z,13.75
2017-09-27T00:58:46.144Z,13.75
2017-09-27T00:59:46.478Z,13.75
2017-09-27T01:00:46.182Z,13.88
2017-09-27T01:02:46.543Z,13.87
2017-09-27T01:06:46.312Z,13.84
2017-09-27T01:07:46.652Z,13.88
2017-09-27T01:08:46.675Z,13.88
2017-09-27T01:09:46.697Z,13.88
2017-09-27T01:10:46.720Z,13.88
2017-09-27T01:11:46.421Z,13.85
2017-09-27T01:12:46.767Z,13.84
2017-09-27T01:14:01.379Z,13.78
2017-09-27T01:15:01.079Z,13.87
2017-09-27T01:15:46.838Z,13.88
2017-09-27T01:16:46.851Z,13.87
2017-09-27T01:17:46.866Z,13.85
2017-09-27T01:18:46.897Z,13.85
2017-09-27T01:20:46.932Z,13.89
2017-09-27T01:21:46.962Z,13.89
2017-09-27T01:22:46.978Z,13.88
2017-09-27T01:23:47.048Z,13.88
2017-09-27T01:24:47.021Z,13.91
2017-09-27T01:25:47.042Z,13.87
2017-09-27T01:26:47.062Z,13.92
2017-09-27T01:27:47.087Z,13.79
2017-09-27T01:29:01.383Z,13.79
2017-09-27T01:29:47.130Z,13.81
2017-09-27T01:30:47.152Z,13.82
2017-09-27T01:31:47.185Z,13.84
2017-09-27T01:34:46.921Z,13.87
2017-09-27T01:35:46.942Z,13.89
2017-09-27T01:36:46.962Z,13.91
2017-09-27T01:37:47.303Z,13.89
2017-09-27T01:38:47.319Z,13.89
2017-09-27T01:40:01.947Z,13.95
2017-09-27T01:40:47.065Z,13.91
2017-09-27T01:41:47.390Z,13.87
2017-09-27T01:42:47.410Z,13.87
2017-09-27T01:43:47.431Z,13.92
2017-09-27T01:44:47.454Z,13.96
2017-09-27T01:45:47.473Z,13.91
2017-09-27T01:46:47.178Z,13.95
2017-09-27T01:48:02.110Z,13.91
2017-09-27T01:49:02.130Z,13.99
2017-09-27T01:49:47.560Z,13.91
2017-09-27T01:50:47.582Z,13.89
2017-09-27T01:51:46.966Z,13.91
2017-09-27T01:52:47.628Z,13.95
2017-09-27T01:53:47.653Z,13.85
2017-09-27T01:54:47.664Z,13.82
2017-09-27T01:55:47.690Z,13.88
2017-09-27T01:56:47.394Z,13.88
2017-09-27T01:57:47.739Z,13.91
2017-09-27T01:58:47.764Z,13.91
2017-09-27T01:59:47.776Z,13.89
2017-09-27T02:01:02.388Z,13.85
2017-09-27T02:01:47.822Z,13.92
2017-09-27T02:02:47.841Z,13.95
2017-09-27T02:03:47.546Z,13.92
2017-09-27T02:05:02.481Z,13.92
2017-09-27T02:05:47.910Z,13.91
2017-09-27T02:07:47.955Z,13.89
2017-09-27T02:08:47.975Z,13.84
2017-09-27T02:09:48.028Z,13.97
2017-09-27T02:10:48.016Z,13.91
2017-09-27T02:11:48.038Z,13.91
2017-09-27T02:12:47.742Z,13.91
2017-09-27T02:13:48.082Z,13.89
2017-09-27T02:14:48.101Z,13.89
2017-09-27T02:15:48.122Z,13.88
2017-09-27T02:17:02.740Z,13.87
2017-09-27T02:17:47.848Z,13.99
2017-09-27T02:18:48.188Z,13.89
2017-09-27T02:19:47.896Z,13.91
2017-09-27T02:20:47.913Z,13.95
2017-09-27T02:21:47.937Z,13.95
2017-09-27T02:22:47.962Z,13.91
2017-09-27T02:23:48.303Z,13.91
2017-09-27T02:24:48.324Z,13.91
2017-09-27T02:25:48.024Z,13.92
2017-09-27T02:26:48.362Z,13.91
2017-09-27T02:27:48.386Z,13.91
2017-09-27T02:28:48.090Z,13.92
2017-09-27T02:29:48.110Z,13.96
2017-09-27T02:32:03.067Z,13.91
2017-09-27T02:33:03.085Z,13.87
2017-09-27T02:33:48.519Z,13.88
2017-09-27T02:34:48.540Z,13.89
2017-09-27T02:36:48.593Z,13.95
2017-09-27T02:37:48.291Z,13.82
2017-09-27T02:38:48.305Z,13.91
2017-09-27T02:40:48.669Z,13.95
2017-09-27T02:41:48.691Z,13.91
2017-09-27T02:42:48.709Z,13.88
2017-09-27T02:43:48.731Z,13.92
2017-09-27T02:44:48.755Z,13.91
2017-09-27T02:45:48.779Z,13.91
2017-09-27T02:46:48.482Z,13.89
2017-09-27T02:49:03.435Z,13.95
2017-09-27T02:49:48.862Z,13.88
2017-09-27T02:51:03.159Z,13.95
2017-09-27T02:52:03.500Z,13.91
2017-09-27T02:52:48.936Z,13.91
2017-09-27T02:53:48.952Z,13.88
2017-09-27T02:54:48.657Z,13.96
2017-09-27T02:55:48.996Z,13.95
2017-09-27T02:56:49.019Z,13.92
2017-09-27T02:57:49.052Z,13.91
2017-09-27T02:59:48.761Z,13.85
2017-09-27T03:00:49.153Z,13.84
2017-09-27T03:01:48.806Z,13.85
2017-09-27T03:03:03.744Z,13.88
2017-09-27T03:04:03.762Z,13.85
2017-09-27T03:05:03.785Z,13.84
2017-09-27T03:06:03.484Z,13.89
2017-09-27T03:07:03.829Z,13.89
2017-09-27T03:07:49.255Z,13.87
2017-09-27T03:08:49.278Z,13.91
2017-09-27T03:09:49.305Z,13.89
2017-09-27T03:11:49.346Z,13.78
2017-09-27T03:12:49.047Z,13.89
2017-09-27T03:13:49.384Z,13.87
2017-09-27T03:14:49.411Z,13.84
2017-09-27T03:15:49.116Z,13.89
2017-09-27T03:16:49.452Z,13.77
2017-09-27T03:17:49.474Z,13.88
2017-09-27T03:18:49.494Z,13.88
2017-09-27T03:19:49.516Z,13.81
2017-09-27T03:20:49.540Z,13.87
2017-09-27T03:22:04.154Z,13.89
2017-09-27T03:23:04.175Z,13.88
2017-09-27T03:24:04.195Z,13.89
2017-09-27T03:24:49.309Z,13.88
2017-09-27T03:25:49.650Z,13.89
2017-09-27T03:27:49.690Z,13.77
2017-09-27T03:28:49.715Z,13.79
2017-09-27T03:29:49.732Z,13.78
2017-09-27T03:30:49.760Z,13.71
2017-09-27T03:31:49.780Z,13.82
2017-09-27T03:32:49.798Z,13.73
2017-09-27T03:33:49.822Z,13.73
2017-09-27T03:34:49.844Z,13.75
2017-09-27T03:36:04.455Z,13.78
2017-09-27T03:36:49.888Z,13.81
2017-09-27T03:37:49.925Z,13.78
2017-09-27T03:38:49.942Z,13.81
2017-09-27T03:40:04.544Z,13.75
2017-09-27T03:40:49.660Z,13.78
2017-09-27T03:41:49.992Z,13.79
2017-09-27T03:42:50.018Z,13.77
2017-09-27T03:43:50.038Z,13.73
2017-09-27T03:44:49.744Z,13.78
2017-09-27T03:45:49.763Z,13.81
2017-09-27T03:46:50.102Z,13.73
2017-09-27T03:47:50.127Z,13.75
2017-09-27T03:48:49.827Z,13.7
2017-09-27T03:49:50.168Z,13.71
2017-09-27T03:50:50.187Z,13.7
2017-09-27T03:52:04.803Z,13.77
2017-09-27T03:52:49.914Z,13.77
2017-09-27T03:53:50.253Z,13.77
2017-09-27T03:54:50.272Z,13.81
2017-09-27T03:55:49.979Z,13.69
2017-09-27T03:57:04.590Z,13.71
2017-09-27T03:57:50.033Z,13.71
2017-09-27T03:58:50.043Z,13.67
2017-09-27T03:59:50.067Z,13.66
2017-09-27T04:00:50.410Z,13.64
2017-09-27T04:01:50.427Z,13.69
2017-09-27T04:02:50.449Z,13.62
2017-09-27T04:03:49.837Z,13.62
2017-09-27T04:04:50.178Z,13.63
2017-09-27T04:06:05.112Z,13.69
2017-09-27T04:06:49.898Z,13.67
2017-09-27T04:08:05.150Z,13.63
2017-09-27T04:08:50.577Z,13.6
2017-09-27T04:09:50.284Z,13.64
2017-09-27T04:10:50.302Z,13.6
2017-09-27T04:12:05.238Z,13.62
2017-09-27T04:13:50.692Z,13.63
2017-09-27T04:14:50.708Z,13.66
2017-09-27T04:16:50.775Z,13.57
2017-09-27T04:17:50.783Z,13.6
2017-09-27T04:18:50.795Z,13.62
2017-09-27T04:19:50.816Z,13.62
2017-09-27T04:20:50.841Z,13.62
2017-09-27T04:21:50.860Z,13.6
2017-09-27T04:22:50.881Z,13.63
2017-09-27T04:24:05.496Z,13.6
2017-09-27T04:24:50.924Z,13.67
2017-09-27T04:25:50.949Z,13.63
2017-09-27T04:26:50.657Z,13.62
2017-09-27T04:27:50.989Z,13.62
2017-09-27T04:28:51.017Z,13.67
2017-09-27T04:30:51.062Z,13.66
2017-09-27T04:31:51.084Z,13.67
2017-09-27T04:32:51.105Z,13.62
2017-09-27T04:33:51.124Z,13.64
2017-09-27T04:34:51.143Z,13.6
2017-09-27T04:35:50.846Z,13.62
2017-09-27T04:36:51.189Z,13.62
2017-09-27T04:37:50.889Z,13.67
2017-09-27T04:39:05.823Z,13.66
2017-09-27T04:39:51.256Z,13.64
2017-09-27T04:40:51.283Z,13.66
2017-09-27T04:41:51.297Z,13.63
2017-09-27T04:42:51.318Z,13.63
2017-09-27T04:44:51.362Z,13.7
2017-09-27T04:45:51.060Z,13.57
2017-09-27T04:46:51.399Z,13.6
2017-09-27T04:48:51.133Z,13.63
2017-09-27T04:49:51.470Z,13.55
2017-09-27T04:50:51.492Z,13.62
2017-09-27T04:51:51.513Z,13.64
2017-09-27T04:52:51.215Z,13.63
2017-09-27T04:53:51.238Z,13.64
2017-09-27T04:55:06.172Z,13.59
2017-09-27T04:55:51.279Z,13.69
2017-09-27T04:57:05.894Z,13.62
2017-09-27T04:57:51.645Z,13.66
2017-09-27T04:58:51.666Z,13.59
2017-09-27T04:59:51.367Z,13.67
2017-09-27T05:01:06.300Z,13.59
2017-09-27T05:01:51.414Z,13.7
2017-09-27T05:02:51.753Z,13.63
2017-09-27T05:03:51.136Z,13.6
2017-09-27T05:04:51.794Z,13.59
2017-09-27T05:06:06.417Z,13.59
2017-09-27T05:06:51.201Z,13.59
2017-09-27T05:07:51.858Z,13.62
2017-09-27T05:08:51.881Z,13.64
2017-09-27T05:09:51.903Z,13.73
2017-09-27T05:11:06.517Z,13.63
2017-09-27T05:11:51.947Z,13.63
2017-09-27T05:12:51.972Z,13.64
2017-09-27T05:13:51.990Z,13.69
2017-09-27T05:14:52.011Z,13.66
2017-09-27T05:16:52.057Z,13.6
2017-09-27T05:17:52.078Z,13.62
2017-09-27T05:18:52.097Z,13.67
2017-09-27T05:19:52.119Z,13.73
2017-09-27T05:20:52.152Z,13.71
2017-09-27T05:21:51.895Z,13.66
2017-09-27T05:22:52.190Z,13.69
2017-09-27T05:23:52.210Z,13.71
2017-09-27T05:24:51.908Z,13.77
2017-09-27T05:25:52.254Z,13.77
2017-09-27T05:27:06.863Z,13.75
2017-09-27T05:27:52.343Z,13.75
2017-09-27T05:28:52.317Z,13.7
2017-09-27T05:29:52.337Z,13.71
2017-09-27T05:32:06.971Z,13.75
2017-09-27T05:32:52.406Z,13.87
2017-09-27T05:33:52.428Z,13.78
2017-09-27T05:34:52.446Z,13.91
2017-09-27T05:35:52.467Z,13.89
2017-09-27T05:36:52.496Z,13.88
2017-09-27T05:37:52.513Z,13.89
2017-09-27T05:38:52.537Z,13.92
2017-09-27T05:39:52.237Z,13.96
2017-09-27T05:40:52.576Z,13.89
2017-09-27T05:41:52.599Z,13.89
2017-09-27T05:43:07.210Z,13.95
2017-09-27T05:43:52.651Z,13.88
2017-09-27T05:44:52.666Z,13.89
2017-09-27T05:46:07.279Z,13.97
2017-09-27T05:46:52.706Z,13.96
2017-09-27T05:47:52.729Z,13.96
2017-09-27T05:48:52.434Z,14.03
2017-09-27T05:49:52.772Z,14.03
2017-09-27T05:50:52.795Z,14.09
2017-09-27T05:51:52.818Z,14.02
2017-09-27T05:52:52.836Z,14.03
2017-09-27T05:53:52.865Z,13.97
2017-09-27T05:54:52.887Z,14.04
2017-09-27T05:55:52.911Z,14.04
2017-09-27T05:56:52.927Z,13.99
2017-09-27T05:57:52.628Z,14.04
2017-09-27T05:59:07.564Z,14.06
2017-09-27T05:59:52.995Z,14.09
2017-09-27T06:00:53.014Z,14.07
2017-09-27T06:01:52.715Z,14.14
2017-09-27T06:02:52.741Z,14.12
2017-09-27T06:03:53.090Z,14.15
2017-09-27T06:05:53.123Z,14.12
2017-09-27T06:06:52.825Z,14.25
2017-09-27T06:07:53.170Z,14.17
2017-09-27T06:08:52.870Z,14.21
2017-09-27T06:09:52.894Z,14.18
2017-09-27T06:10:53.233Z,14.21
2017-09-27T06:11:53.254Z,14.17
2017-09-27T06:14:07.892Z,14.09
2017-09-27T06:14:53.322Z,14.14
2017-09-27T06:15:53.342Z,14.17
2017-09-27T06:16:53.364Z,14.25
2017-09-27T06:17:53.387Z,14.24
2017-09-27T06:18:53.089Z,14.18
2017-09-27T06:19:53.433Z,14.2
2017-09-27T06:20:53.133Z,14.27
2017-09-27T06:21:53.477Z,14.24
2017-09-27T06:22:53.497Z,14.36
2017-09-27T06:23:53.519Z,14.32
2017-09-27T06:24:52.905Z,14.32
2017-09-27T06:25:53.566Z,14.35
2017-09-27T06:26:53.582Z,14.32
2017-09-27T06:27:53.605Z,14.37
2017-09-27T06:28:53.631Z,14.25
2017-09-27T06:30:08.245Z,14.22
2017-09-27T06:30:53.684Z,14.29
2017-09-27T06:32:07.968Z,14.39
2017-09-27T06:32:53.717Z,14.37
2017-09-27T06:33:53.748Z,14.33
2017-09-27T06:34:53.766Z,14.25
2017-09-27T06:35:53.467Z,14.24
2017-09-27T06:36:53.803Z,14.33
2017-09-27T06:37:53.555Z,14.37
2017-09-27T06:38:53.533Z,14.36
2017-09-27T06:39:53.878Z,14.33
2017-09-27T06:40:53.574Z,14.37
2017-09-27T06:41:53.596Z,14.32
2017-09-27T06:42:53.617Z,14.39
2017-09-27T06:43:53.640Z,14.37
2017-09-27T06:44:53.661Z,14.46
2017-09-27T06:46:08.591Z,14.39
2017-09-27T06:46:53.388Z,14.46
2017-09-27T06:47:54.047Z,14.37
2017-09-27T06:48:53.752Z,14.43
2017-09-27T06:50:54.116Z,14.54
2017-09-27T06:51:54.134Z,14.55
2017-09-27T06:52:54.154Z,14.42
2017-09-27T06:53:54.178Z,14.42
2017-09-27T06:55:54.221Z,14.52
2017-09-27T06:56:54.243Z,14.5
2017-09-27T06:57:54.265Z,14.51
2017-09-27T06:58:53.975Z,14.55
2017-09-27T06:59:54.308Z,14.55
2017-09-27T07:00:54.335Z,14.51
2017-09-27T07:02:09.048Z,14.5
2017-09-27T07:02:54.380Z,14.61
2017-09-27T07:03:54.397Z,14.52
2017-09-27T07:05:09.014Z,14.46
2017-09-27T07:07:54.492Z,14.62
2017-09-27T07:08:54.193Z,14.55
2017-09-27T07:09:54.214Z,14.58
2017-09-27T07:10:54.554Z,14.57
2017-09-27T07:11:54.578Z,14.64
2017-09-27T07:12:54.596Z,14.55
2017-09-27T07:13:54.623Z,14.62
2017-09-27T07:14:54.646Z,14.64
2017-09-27T07:15:54.670Z,14.65
2017-09-27T07:16:54.692Z,14.61
2017-09-27T07:18:09.304Z,14.61
2017-09-27T07:19:09.330Z,14.51
2017-09-27T07:19:54.754Z,14.54
2017-09-27T07:21:09.367Z,14.65
2017-09-27T07:21:54.481Z,14.65
2017-09-27T07:23:09.411Z,14.64
2017-09-27T07:24:54.870Z,14.7
2017-09-27T07:25:54.884Z,14.75
2017-09-27T07:26:54.912Z,14.78
2017-09-27T07:27:54.616Z,14.77
2017-09-27T07:28:54.955Z,14.72
2017-09-27T07:29:54.974Z,14.8
2017-09-27T07:30:54.998Z,14.84
2017-09-27T07:31:54.700Z,14.94
2017-09-27T07:32:55.055Z,14.92
2017-09-27T07:34:09.660Z,14.94
2017-09-27T07:34:55.091Z,14.88
2017-09-27T07:35:54.799Z,14.8
2017-09-27T07:36:54.812Z,14.8
2017-09-27T07:38:09.747Z,14.83
2017-09-27T07:38:55.176Z,14.92
2017-09-27T07:39:55.199Z,14.86
2017-09-27T07:40:55.224Z,14.89
2017-09-27T07:42:55.266Z,14.94
2017-09-27T07:43:55.292Z,15.01
2017-09-27T07:44:55.312Z,15.07
2017-09-27T07:45:55.015Z,15.06
2017-09-27T07:46:55.366Z,15.13
2017-09-27T07:47:55.389Z,15.09
2017-09-27T07:49:09.991Z,15.13
2017-09-27T07:49:55.420Z,15.06
2017-09-27T07:50:55.446Z,15.23
2017-09-27T07:51:55.468Z,15.29
2017-09-27T07:52:55.172Z,15.27
2017-09-27T07:53:55.518Z,15.25
2017-09-27T07:55:55.560Z,15.27
2017-09-27T07:56:55.603Z,15.28
2017-09-27T07:57:55.602Z,15.41
2017-09-27T07:58:55.632Z,15.36
2017-09-27T07:59:55.651Z,15.43
2017-09-27T08:00:55.676Z,15.5
2017-09-27T08:01:55.694Z,15.44
2017-09-27T08:02:55.714Z,15.5
2017-09-27T08:03:55.743Z,15.43
2017-09-27T08:04:55.761Z,15.51
2017-09-27T08:05:55.468Z,15.62
2017-09-27T08:06:55.807Z,15.71
2017-09-27T08:08:10.419Z,15.84
2017-09-27T08:09:55.874Z,15.74
2017-09-27T08:10:55.896Z,15.72
2017-09-27T08:11:55.600Z,15.8
2017-09-27T08:12:55.949Z,15.86
2017-09-27T08:13:55.648Z,15.83
2017-09-27T08:15:55.693Z,15.83
2017-09-27T08:16:56.039Z,16
2017-09-27T08:17:55.736Z,16.08
2017-09-27T08:18:56.077Z,16.11
2017-09-27T08:19:56.105Z,16.04
2017-09-27T08:21:10.717Z,16
2017-09-27T08:21:55.829Z,16.08
2017-09-27T08:22:56.169Z,15.97
2017-09-27T08:23:55.874Z,16.05
2017-09-27T08:25:10.808Z,16.04
2017-09-27T08:25:56.236Z,16.12
2017-09-27T08:26:55.947Z,16.07
2017-09-27T08:27:55.647Z,16.04
2017-09-27T08:28:55.988Z,16.08
2017-09-27T08:29:55.692Z,16.04
2017-09-27T08:30:56.035Z,16
2017-09-27T08:31:56.274Z,15.94
2017-09-27T08:32:56.397Z,16.01
2017-09-27T08:33:55.785Z,15.96
2017-09-27T08:34:56.440Z,16.12
2017-09-27T08:35:56.147Z,15.97
2017-09-27T08:37:11.085Z,16.14
2017-09-27T08:37:56.194Z,16.09
2017-09-27T08:38:56.216Z,16.12
2017-09-27T08:39:56.564Z,16.2
2017-09-27T08:40:56.583Z,16.34
2017-09-27T08:41:56.604Z,16.27
2017-09-27T08:42:56.628Z,16.42
2017-09-27T08:43:56.649Z,16.48
2017-09-27T08:44:56.357Z,16.42
2017-09-27T08:45:56.380Z,16.42
2017-09-27T08:46:56.402Z,16.35
2017-09-27T08:47:56.746Z,16.43
2017-09-27T08:48:56.446Z,16.48
2017-09-27T08:49:56.792Z,16.48
2017-09-27T08:50:56.818Z,16.5
2017-09-27T08:51:56.515Z,16.33
2017-09-27T08:53:11.451Z,16.34
2017-09-27T08:53:56.880Z,16.31
2017-09-27T08:54:56.909Z,16.42
2017-09-27T08:56:56.951Z,16.6
2017-09-27T08:57:56.979Z,16.68
2017-09-27T08:58:56.996Z,16.79
2017-09-27T08:59:57.028Z,16.85
2017-09-27T09:00:56.722Z,16.82
2017-09-27T09:01:56.748Z,16.82
2017-09-27T09:02:56.773Z,16.94
2017-09-27T09:03:56.792Z,17.03
2017-09-27T09:04:57.136Z,17.19
2017-09-27T09:05:57.156Z,17.21
2017-09-27T09:06:57.179Z,17.22
2017-09-27T09:07:56.887Z,17.31
2017-09-27T09:09:11.819Z,17.43
2017-09-27T09:09:56.612Z,17.52
2017-09-27T09:10:57.275Z,17.52
2017-09-27T09:11:57.298Z,17.4
2017-09-27T09:12:57.001Z,17.36
2017-09-27T09:13:57.027Z,17.36
2017-09-27T09:15:11.956Z,17.3
2017-09-27T09:15:57.391Z,17.25
2017-09-27T09:17:57.437Z,17.31
2017-09-27T09:18:57.457Z,17.31
2017-09-27T09:19:57.481Z,17.43
2017-09-27T09:20:57.194Z,17.52
2017-09-27T09:21:57.215Z,17.56
2017-09-27T09:22:57.551Z,17.7
2017-09-27T09:24:12.178Z,17.64
2017-09-27T09:24:57.601Z,17.68
2017-09-27T09:25:57.315Z,17.64
2017-09-27T09:26:57.652Z,17.86
2017-09-27T09:27:57.684Z,18.02
2017-09-27T09:28:57.379Z,18.07
2017-09-27T09:30:57.110Z,18.42
2017-09-27T09:31:57.765Z,18.36
2017-09-27T09:32:57.795Z,18.6
2017-09-27T09:33:57.499Z,18.7
2017-09-27T09:34:57.521Z,18.84
2017-09-27T09:35:57.229Z,18.94
2017-09-27T09:36:57.578Z,19.06
2017-09-27T09:37:57.595Z,19.13
2017-09-27T09:38:57.619Z,19.11
2017-09-27T09:40:12.556Z,18.76
2017-09-27T09:40:57.666Z,18.66
2017-09-27T09:41:58.006Z,18.73
2017-09-27T09:42:58.039Z,18.7
2017-09-27T09:43:57.742Z,18.75
2017-09-27T09:44:57.762Z,18.67
2017-09-27T09:45:58.105Z,18.85
2017-09-27T09:46:57.812Z,18.9
2017-09-27T09:47:57.839Z,18.9
2017-09-27T09:48:58.176Z,18.75
2017-09-27T09:49:57.567Z,18.66
2017-09-27T09:50:58.260Z,18.65
2017-09-27T09:51:57.931Z,18.54
2017-09-27T09:52:58.278Z,18.48
2017-09-27T09:53:58.305Z,18.33
2017-09-27T09:54:58.003Z,18.37
2017-09-27T09:56:12.940Z,18.6
2017-09-27T09:56:58.373Z,18.65
2017-09-27T09:58:12.992Z,18.69
2017-09-27T09:59:13.014Z,18.82
2017-09-27T09:59:58.449Z,18.9
2017-09-27T10:00:58.157Z,19
2017-09-27T10:01:58.498Z,19.1
2017-09-27T10:02:58.518Z,19.02
2017-09-27T10:03:58.544Z,19
2017-09-27T10:05:58.274Z,19.16
2017-09-27T10:06:57.978Z,19.26
2017-09-27T10:07:58.647Z,19.18
2017-09-27T10:08:58.662Z,19.14
2017-09-27T10:09:58.369Z,19.18
2017-09-27T10:10:58.396Z,19.16
2017-09-27T10:12:13.349Z,19.18
2017-09-27T10:12:58.446Z,19.25
2017-09-27T10:14:13.059Z,19.33
2017-09-27T10:15:58.516Z,19.33
2017-09-27T10:17:58.573Z,19.28
2017-09-27T10:18:58.591Z,19.21
2017-09-27T10:19:58.615Z,19.18
2017-09-27T10:20:58.973Z,19.16
2017-09-27T10:21:58.988Z,19.13
2017-09-27T10:22:59.014Z,19.1
2017-09-27T10:23:59.033Z,19.04
2017-09-27T10:24:58.740Z,18.94
2017-09-27T10:25:58.764Z,19
2017-09-27T10:26:59.105Z,18.91
2017-09-27T10:28:13.403Z,18.99
2017-09-27T10:28:58.836Z,19
2017-09-27T10:29:59.177Z,19.04
2017-09-27T10:30:59.205Z,19.11
2017-09-27T10:31:58.915Z,19.07
2017-09-27T10:33:13.843Z,19.06
2017-09-27T10:33:59.274Z,19.07
2017-09-27T10:35:59.325Z,18.98
2017-09-27T10:37:58.737Z,19
2017-09-27T10:38:58.761Z,19.18
2017-09-27T10:39:59.422Z,19.28
2017-09-27T10:40:59.447Z,19.36
2017-09-27T10:41:59.483Z,19.33
2017-09-27T10:42:59.500Z,19.21
2017-09-27T10:44:14.112Z,19.16
2017-09-27T10:44:59.546Z,19.07
2017-09-27T10:45:59.570Z,18.94
2017-09-27T10:46:59.280Z,18.95
2017-09-27T10:47:59.624Z,19.14
2017-09-27T10:48:59.692Z,19.31
2017-09-27T10:49:59.673Z,19.41
2017-09-27T10:50:59.690Z,19.62
2017-09-27T10:51:59.434Z,19.77
2017-09-27T10:52:59.425Z,20.03
2017-09-27T10:53:59.445Z,20.05
2017-09-27T10:54:59.797Z,20.2
2017-09-27T10:55:59.177Z,20.23
2017-09-27T10:56:59.539Z,20.16
2017-09-27T10:57:59.550Z,20.23
2017-09-27T10:59:14.482Z,20.14
2017-09-27T10:59:59.939Z,20.02
2017-09-27T11:01:14.212Z,19.69
2017-09-27T11:02:14.564Z,19.58
2017-09-27T11:02:59.675Z,19.81
2017-09-27T11:04:00.014Z,19.8
2017-09-27T11:05:00.042Z,19.73
2017-09-27T11:06:00.063Z,19.78
2017-09-27T11:07:00.129Z,19.68
2017-09-27T11:07:59.806Z,19.8
2017-09-27T11:08:59.822Z,19.73
2017-09-27T11:10:00.180Z,19.83
2017-09-27T11:13:14.848Z,19.68
2017-09-27T11:14:00.257Z,19.73
2017-09-27T11:15:00.291Z,19.77
2017-09-27T11:16:14.581Z,19.74
2017-09-27T11:17:00.014Z,19.83
2017-09-27T11:18:00.036Z,20.01
2017-09-27T11:19:00.066Z,20.21
2017-09-27T11:20:14.999Z,20.47
2017-09-27T11:21:00.431Z,20.41
2017-09-27T11:22:00.456Z,20.41
2017-09-27T11:23:00.163Z,20.39
2017-09-27T11:24:00.189Z,20.39
2017-09-27T11:25:00.533Z,20.43
2017-09-27T11:26:00.237Z,20.52
2017-09-27T11:27:00.261Z,20.58
2017-09-27T11:27:59.973Z,20.61
2017-09-27T11:29:00.309Z,20.64
2017-09-27T11:30:00.017Z,20.51
2017-09-27T11:31:15.271Z,20.41
2017-09-27T11:32:00.067Z,20.39
2017-09-27T11:33:00.728Z,20.41
2017-09-27T11:34:00.757Z,20.42
2017-09-27T11:35:00.778Z,20.42
2017-09-27T11:37:00.515Z,20.72
2017-09-27T11:38:00.861Z,20.94
2017-09-27T11:40:00.905Z,21.12
2017-09-27T11:41:00.960Z,21.09
2017-09-27T11:42:00.954Z,20.94
2017-09-27T11:43:00.664Z,20.98
2017-09-27T11:44:01.005Z,20.88
2017-09-27T11:45:01.075Z,20.85
2017-09-27T11:46:01.053Z,20.89
2017-09-27T11:47:15.669Z,20.92
2017-09-27T11:48:01.103Z,20.94
2017-09-27T11:49:00.807Z,20.95
2017-09-27T11:50:01.166Z,20.88
2017-09-27T11:51:01.177Z,20.85
2017-09-27T11:53:01.232Z,21.07
2017-09-27T11:54:01.295Z,21.35
2017-09-27T11:56:00.988Z,21.21
2017-09-27T11:57:01.403Z,21.06
2017-09-27T11:58:01.052Z,20.97
2017-09-27T11:59:01.384Z,20.95
2017-09-27T12:00:01.085Z,21.04
2017-09-27T12:01:01.481Z,21.21
2017-09-27T12:02:01.460Z,21.42
2017-09-27T12:03:16.084Z,21.53
2017-09-27T12:04:01.505Z,21.52
2017-09-27T12:05:16.121Z,21.59
2017-09-27T12:07:01.262Z,21.83
2017-09-27T12:08:01.287Z,21.82
2017-09-27T12:10:01.659Z,21.82
2017-09-27T12:11:01.362Z,21.62
2017-09-27T12:12:01.712Z,21.59
2017-09-27T12:13:01.416Z,21.42
2017-09-27T12:14:01.755Z,21.43
2017-09-27T12:15:01.785Z,21.62
2017-09-27T12:16:01.809Z,21.54
2017-09-27T12:17:01.832Z,21.4
2017-09-27T12:18:01.856Z,21.5
2017-09-27T12:19:16.155Z,21.4
2017-09-27T12:20:01.591Z,21.42
2017-09-27T12:21:16.527Z,21.5
2017-09-27T12:22:01.644Z,21.42
2017-09-27T12:23:01.985Z,21.22
2017-09-27T12:24:01.742Z,20.97
2017-09-27T12:25:01.716Z,20.98
2017-09-27T12:26:02.062Z,21.12
2017-09-27T12:27:01.768Z,21.1
2017-09-27T12:28:01.797Z,21.09
2017-09-27T12:29:02.135Z,20.97
2017-09-27T12:30:02.169Z,20.92
2017-09-27T12:31:02.186Z,20.92
2017-09-27T12:32:02.212Z,20.91
2017-09-27T12:33:02.236Z,21.06
2017-09-27T12:34:16.854Z,21.09
2017-09-27T12:35:02.285Z,21.09
2017-09-27T12:36:02.324Z,21.12
2017-09-27T12:37:02.026Z,20.98
2017-09-27T12:39:02.384Z,20.92
2017-09-27T12:40:02.415Z,20.79
2017-09-27T12:41:17.026Z,20.76
2017-09-27T12:42:02.462Z,20.79
2017-09-27T12:43:02.491Z,20.84
2017-09-27T12:44:02.191Z,20.73
2017-09-27T12:45:02.587Z,20.67
2017-09-27T12:46:02.562Z,20.69
2017-09-27T12:47:02.584Z,20.67
2017-09-27T12:48:02.614Z,20.67
2017-09-27T12:49:02.639Z,20.72
2017-09-27T12:50:02.343Z,20.62
2017-09-27T12:51:02.366Z,20.74
2017-09-27T12:52:02.711Z,20.66
2017-09-27T12:53:02.733Z,20.85
2017-09-27T12:54:17.351Z,20.82
2017-09-27T12:55:02.786Z,20.87
2017-09-27T12:56:02.178Z,20.91
2017-09-27T12:57:02.840Z,21.03
2017-09-27T12:58:02.861Z,21.25
2017-09-27T12:59:17.521Z,21.4
2017-09-27T13:00:02.909Z,21.34
2017-09-27T13:01:02.937Z,21.4
2017-09-27T13:02:02.640Z,21.52
2017-09-27T13:03:02.985Z,21.47
2017-09-27T13:04:03.013Z,21.59
2017-09-27T13:05:02.715Z,21.54
2017-09-27T13:06:17.651Z,21.67
2017-09-27T13:07:02.766Z,21.58
2017-09-27T13:08:02.794Z,21.5
2017-09-27T13:09:02.816Z,21.44
2017-09-27T13:10:02.842Z,21.49
2017-09-27T13:11:02.870Z,21.49
2017-09-27T13:12:02.890Z,21.47
2017-09-27T13:13:02.600Z,21.25
2017-09-27T13:15:03.291Z,21.22
2017-09-27T13:16:03.314Z,21.03
2017-09-27T13:17:03.017Z,20.88
2017-09-27T13:18:03.360Z,20.66
2017-09-27T13:19:03.388Z,20.64
2017-09-27T13:20:03.094Z,20.64
2017-09-27T13:21:03.437Z,20.59
2017-09-27T13:22:18.056Z,20.61
2017-09-27T13:23:03.488Z,20.61
2017-09-27T13:24:03.513Z,20.43
2017-09-27T13:25:03.540Z,20.54
2017-09-27T13:26:03.565Z,20.43
2017-09-27T13:27:03.584Z,20.43
2017-09-27T13:29:03.638Z,20.41
2017-09-27T13:30:03.662Z,20.41
2017-09-27T13:31:03.689Z,20.39
2017-09-27T13:32:03.715Z,20.43
2017-09-27T13:33:03.738Z,20.29
2017-09-27T13:34:03.443Z,20.2
2017-09-27T13:35:03.788Z,20.35
2017-09-27T13:36:03.172Z,20.39
2017-09-27T13:37:03.198Z,20.47
2017-09-27T13:38:18.452Z,20.55
2017-09-27T13:39:03.895Z,20.51
2017-09-27T13:40:03.907Z,20.29
2017-09-27T13:41:18.526Z,20.26
2017-09-27T13:42:04.962Z,20.28
2017-09-27T13:43:03.984Z,20.24
2017-09-27T13:44:04.013Z,20.36
2017-09-27T13:45:04.037Z,20.43
2017-09-27T13:46:04.063Z,20.52
2017-09-27T13:47:04.134Z,20.55
2017-09-27T13:48:04.111Z,20.36
2017-09-27T13:49:04.133Z,20.41
2017-09-27T13:50:04.160Z,20.47
2017-09-27T13:51:03.864Z,20.47